sensor_id;sensor_type;location;lat;lon;timestamp;temperature;humidity
77100;SHT31;66602;48.922;2.414;2023-06-10T00:01:41;21.55;65.14
77100;SHT31;66602;48.922;2.414;2023-06-10T00:04:08;21.55;65.07
77100;SHT31;66602;48.922;2.414;2023-06-10T00:06:34;21.54;65.38
77100;SHT31;66602;48.922;2.414;2023-06-10T00:09:06;21.44;65.57
77100;SHT31;66602;48.922;2.414;2023-06-10T00:11:36;21.41;65.54
77100;SHT31;66602;48.922;2.414;2023-06-10T00:14:03;21.34;65.86
77100;SHT31;66602;48.922;2.414;2023-06-10T00:16:28;21.25;66.33
77100;SHT31;66602;48.922;2.414;2023-06-10T00:18:54;21.14;66.44
77100;SHT31;66602;48.922;2.414;2023-06-10T00:21:27;21.08;66.75
77100;SHT31;66602;48.922;2.414;2023-06-10T00:23:53;21.03;67.07
77100;SHT31;66602;48.922;2.414;2023-06-10T00:26:18;21.07;66.69
77100;SHT31;66602;48.922;2.414;2023-06-10T00:28:44;21.14;66.50
77100;SHT31;66602;48.922;2.414;2023-06-10T00:31:10;21.14;66.26
77100;SHT31;66602;48.922;2.414;2023-06-10T00:33:36;21.15;66.45
77100;SHT31;66602;48.922;2.414;2023-06-10T00:36:01;21.05;66.63
77100;SHT31;66602;48.922;2.414;2023-06-10T00:38:27;21.00;67.13
77100;SHT31;66602;48.922;2.414;2023-06-10T00:40:52;21.01;67.13
77100;SHT31;66602;48.922;2.414;2023-06-10T00:43:18;21.08;67.09
77100;SHT31;66602;48.922;2.414;2023-06-10T00:45:43;21.17;66.67
77100;SHT31;66602;48.922;2.414;2023-06-10T00:48:09;21.39;66.15
77100;SHT31;66602;48.922;2.414;2023-06-10T00:50:35;21.61;65.55
77100;SHT31;66602;48.922;2.414;2023-06-10T00:53:07;21.75;65.13
77100;SHT31;66602;48.922;2.414;2023-06-10T00:55:34;21.73;65.29
77100;SHT31;66602;48.922;2.414;2023-06-10T00:57:59;21.72;65.28
77100;SHT31;66602;48.922;2.414;2023-06-10T01:00:25;21.67;65.44
77100;SHT31;66602;48.922;2.414;2023-06-10T01:02:51;21.59;65.75
77100;SHT31;66602;48.922;2.414;2023-06-10T01:05:20;21.59;65.56
77100;SHT31;66602;48.922;2.414;2023-06-10T01:10:49;21.34;66.42
77100;SHT31;66602;48.922;2.414;2023-06-10T01:13:16;21.32;66.59
77100;SHT31;66602;48.922;2.414;2023-06-10T01:15:43;21.35;66.29
77100;SHT31;66602;48.922;2.414;2023-06-10T01:18:10;21.30;66.48
77100;SHT31;66602;48.922;2.414;2023-06-10T01:20:41;21.18;66.88
77100;SHT31;66602;48.922;2.414;2023-06-10T01:23:09;21.15;67.02
77100;SHT31;66602;48.922;2.414;2023-06-10T01:26:01;21.07;67.31
77100;SHT31;66602;48.922;2.414;2023-06-10T01:33:35;20.67;68.69
77100;SHT31;66602;48.922;2.414;2023-06-10T01:36:02;20.60;68.91
77100;SHT31;66602;48.922;2.414;2023-06-10T01:38:32;20.55;69.23
77100;SHT31;66602;48.922;2.414;2023-06-10T01:40:59;20.45;69.48
77100;SHT31;66602;48.922;2.414;2023-06-10T01:43:25;20.36;70.11
77100;SHT31;66602;48.922;2.414;2023-06-10T01:45:50;20.24;70.39
77100;SHT31;66602;48.922;2.414;2023-06-10T01:48:16;20.16;70.61
77100;SHT31;66602;48.922;2.414;2023-06-10T01:50:41;20.09;70.93
77100;SHT31;66602;48.922;2.414;2023-06-10T01:53:09;20.01;71.57
77100;SHT31;66602;48.922;2.414;2023-06-10T01:55:34;19.94;71.86
77100;SHT31;66602;48.922;2.414;2023-06-10T01:58:00;19.88;71.81
77100;SHT31;66602;48.922;2.414;2023-06-10T02:00:25;19.82;72.02
77100;SHT31;66602;48.922;2.414;2023-06-10T02:02:51;19.74;72.40
77100;SHT31;66602;48.922;2.414;2023-06-10T02:05:16;19.67;72.60
77100;SHT31;66602;48.922;2.414;2023-06-10T02:07:42;19.64;72.83
77100;SHT31;66602;48.922;2.414;2023-06-10T02:10:08;19.60;73.04
77100;SHT31;66602;48.922;2.414;2023-06-10T02:12:33;19.53;73.19
77100;SHT31;66602;48.922;2.414;2023-06-10T02:14:59;19.47;73.54
77100;SHT31;66602;48.922;2.414;2023-06-10T02:17:24;19.41;73.83
77100;SHT31;66602;48.922;2.414;2023-06-10T02:19:52;19.38;73.88
77100;SHT31;66602;48.922;2.414;2023-06-10T02:22:22;19.33;74.04
77100;SHT31;66602;48.922;2.414;2023-06-10T02:24:48;19.31;74.18
77100;SHT31;66602;48.922;2.414;2023-06-10T02:27:15;19.24;74.37
77100;SHT31;66602;48.922;2.414;2023-06-10T02:29:40;19.31;74.20
77100;SHT31;66602;48.922;2.414;2023-06-10T02:32:07;19.24;74.34
77100;SHT31;66602;48.922;2.414;2023-06-10T02:34:32;19.15;74.72
77100;SHT31;66602;48.922;2.414;2023-06-10T02:36:59;19.06;75.12
77100;SHT31;66602;48.922;2.414;2023-06-10T02:39:24;18.99;75.41
77100;SHT31;66602;48.922;2.414;2023-06-10T02:41:50;18.99;75.45
77100;SHT31;66602;48.922;2.414;2023-06-10T02:44:18;19.03;75.51
77100;SHT31;66602;48.922;2.414;2023-06-10T02:46:43;19.06;75.30
77100;SHT31;66602;48.922;2.414;2023-06-10T02:49:09;19.00;75.34
77100;SHT31;66602;48.922;2.414;2023-06-10T02:51:34;18.95;75.54
77100;SHT31;66602;48.922;2.414;2023-06-10T02:54:00;18.94;75.61
77100;SHT31;66602;48.922;2.414;2023-06-10T02:56:26;18.86;75.96
77100;SHT31;66602;48.922;2.414;2023-06-10T02:58:51;18.79;76.11
77100;SHT31;66602;48.922;2.414;2023-06-10T03:01:17;18.75;76.40
77100;SHT31;66602;48.922;2.414;2023-06-10T03:03:44;18.69;76.67
77100;SHT31;66602;48.922;2.414;2023-06-10T03:06:10;18.72;76.45
77100;SHT31;66602;48.922;2.414;2023-06-10T03:08:36;18.85;75.94
77100;SHT31;66602;48.922;2.414;2023-06-10T03:11:03;18.85;75.89
77100;SHT31;66602;48.922;2.414;2023-06-10T03:13:28;18.81;75.94
77100;SHT31;66602;48.922;2.414;2023-06-10T03:15:54;18.75;76.08
77100;SHT31;66602;48.922;2.414;2023-06-10T03:18:19;18.85;75.31
77100;SHT31;66602;48.922;2.414;2023-06-10T03:20:48;19.02;74.76
77100;SHT31;66602;48.922;2.414;2023-06-10T03:23:13;18.95;74.85
77100;SHT31;66602;48.922;2.414;2023-06-10T03:25:40;18.85;75.10
77100;SHT31;66602;48.922;2.414;2023-06-10T03:28:06;18.85;75.11
77100;SHT31;66602;48.922;2.414;2023-06-10T03:30:31;18.85;75.06
77100;SHT31;66602;48.922;2.414;2023-06-10T03:32:57;18.82;75.43
77100;SHT31;66602;48.922;2.414;2023-06-10T03:35:22;18.73;75.68
77100;SHT31;66602;48.922;2.414;2023-06-10T03:37:48;18.78;75.51
77100;SHT31;66602;48.922;2.414;2023-06-10T03:40:13;19.02;74.27
77100;SHT31;66602;48.922;2.414;2023-06-10T03:42:39;19.02;74.32
77100;SHT31;66602;48.922;2.414;2023-06-10T03:45:05;18.92;74.51
77100;SHT31;66602;48.922;2.414;2023-06-10T03:47:34;18.75;75.24
77100;SHT31;66602;48.922;2.414;2023-06-10T03:50:03;18.68;75.96
77100;SHT31;66602;48.922;2.414;2023-06-10T03:52:29;18.64;76.51
77100;SHT31;66602;48.922;2.414;2023-06-10T03:54:54;18.62;76.51
77100;SHT31;66602;48.922;2.414;2023-06-10T03:57:20;18.52;76.98
77100;SHT31;66602;48.922;2.414;2023-06-10T03:59:45;18.66;76.79
77100;SHT31;66602;48.922;2.414;2023-06-10T04:02:11;18.75;76.44
77100;SHT31;66602;48.922;2.414;2023-06-10T04:04:36;18.82;76.34
77100;SHT31;66602;48.922;2.414;2023-06-10T04:07:04;18.94;75.94
77100;SHT31;66602;48.922;2.414;2023-06-10T04:09:29;18.95;75.86
77100;SHT31;66602;48.922;2.414;2023-06-10T04:11:55;19.00;75.55
77100;SHT31;66602;48.922;2.414;2023-06-10T04:14:20;18.98;75.78
77100;SHT31;66602;48.922;2.414;2023-06-10T04:16:46;18.89;76.10
77100;SHT31;66602;48.922;2.414;2023-06-10T04:19:11;18.81;76.30
77100;SHT31;66602;48.922;2.414;2023-06-10T04:21:37;18.82;76.17
77100;SHT31;66602;48.922;2.414;2023-06-10T04:24:02;18.89;75.86
77100;SHT31;66602;48.922;2.414;2023-06-10T04:26:28;18.94;75.81
77100;SHT31;66602;48.922;2.414;2023-06-10T04:28:54;19.00;75.47
77100;SHT31;66602;48.922;2.414;2023-06-10T04:31:19;19.13;74.91
77100;SHT31;66602;48.922;2.414;2023-06-10T04:33:45;19.28;74.19
77100;SHT31;66602;48.922;2.414;2023-06-10T04:36:11;19.24;74.73
77100;SHT31;66602;48.922;2.414;2023-06-10T04:38:36;19.19;74.81
77100;SHT31;66602;48.922;2.414;2023-06-10T04:41:02;19.17;74.82
77100;SHT31;66602;48.922;2.414;2023-06-10T04:43:28;19.23;74.67
77100;SHT31;66602;48.922;2.414;2023-06-10T04:45:55;19.27;74.86
77100;SHT31;66602;48.922;2.414;2023-06-10T04:48:20;19.23;74.83
77100;SHT31;66602;48.922;2.414;2023-06-10T04:50:46;19.27;74.41
77100;SHT31;66602;48.922;2.414;2023-06-10T04:53:12;19.38;74.10
77100;SHT31;66602;48.922;2.414;2023-06-10T04:55:37;19.41;74.04
77100;SHT31;66602;48.922;2.414;2023-06-10T04:58:02;19.40;74.25
77100;SHT31;66602;48.922;2.414;2023-06-10T05:00:28;19.41;74.02
77100;SHT31;66602;48.922;2.414;2023-06-10T05:02:53;19.44;74.04
77100;SHT31;66602;48.922;2.414;2023-06-10T05:05:19;19.51;73.52
77100;SHT31;66602;48.922;2.414;2023-06-10T05:07:45;19.60;73.11
77100;SHT31;66602;48.922;2.414;2023-06-10T05:10:10;19.58;73.43
77100;SHT31;66602;48.922;2.414;2023-06-10T05:12:38;19.65;73.32
77100;SHT31;66602;48.922;2.414;2023-06-10T05:15:05;19.68;72.99
77100;SHT31;66602;48.922;2.414;2023-06-10T05:17:31;19.73;72.81
77100;SHT31;66602;48.922;2.414;2023-06-10T05:19:56;19.71;73.31
77100;SHT31;66602;48.922;2.414;2023-06-10T05:22:22;19.65;73.99
77100;SHT31;66602;48.922;2.414;2023-06-10T05:24:50;19.64;74.13
77100;SHT31;66602;48.922;2.414;2023-06-10T05:27:16;19.67;73.55
77100;SHT31;66602;48.922;2.414;2023-06-10T05:29:42;19.75;72.92
77100;SHT31;66602;48.922;2.414;2023-06-10T05:32:07;19.82;72.57
77100;SHT31;66602;48.922;2.414;2023-06-10T05:34:33;19.96;71.88
77100;SHT31;66602;48.922;2.414;2023-06-10T05:36:59;20.08;71.35
77100;SHT31;66602;48.922;2.414;2023-06-10T05:39:25;20.21;70.83
77100;SHT31;66602;48.922;2.414;2023-06-10T05:41:51;20.28;70.75
77100;SHT31;66602;48.922;2.414;2023-06-10T05:44:16;20.29;70.59
77100;SHT31;66602;48.922;2.414;2023-06-10T05:46:42;20.30;71.02
77100;SHT31;66602;48.922;2.414;2023-06-10T05:49:07;20.37;70.45
77100;SHT31;66602;48.922;2.414;2023-06-10T05:51:33;20.45;69.83
77100;SHT31;66602;48.922;2.414;2023-06-10T05:53:58;20.53;69.82
77100;SHT31;66602;48.922;2.414;2023-06-10T05:56:24;20.67;69.49
77100;SHT31;66602;48.922;2.414;2023-06-10T05:58:51;20.77;69.17
77100;SHT31;66602;48.922;2.414;2023-06-10T06:01:16;20.79;69.41
77100;SHT31;66602;48.922;2.414;2023-06-10T06:03:42;20.80;69.65
77100;SHT31;66602;48.922;2.414;2023-06-10T06:06:07;20.90;69.56
77100;SHT31;66602;48.922;2.414;2023-06-10T06:08:33;20.97;68.99
77100;SHT31;66602;48.922;2.414;2023-06-10T06:10:58;21.04;69.26
77100;SHT31;66602;48.922;2.414;2023-06-10T06:13:24;21.14;68.91
77100;SHT31;66602;48.922;2.414;2023-06-10T06:15:50;21.23;68.40
77100;SHT31;66602;48.922;2.414;2023-06-10T06:18:15;21.31;67.79
77100;SHT31;66602;48.922;2.414;2023-06-10T06:20:41;21.42;67.57
77100;SHT31;66602;48.922;2.414;2023-06-10T06:23:07;21.41;68.14
77100;SHT31;66602;48.922;2.414;2023-06-10T06:25:36;21.48;67.99
77100;SHT31;66602;48.922;2.414;2023-06-10T06:28:05;21.61;67.79
77100;SHT31;66602;48.922;2.414;2023-06-10T06:30:31;21.78;66.96
77100;SHT31;66602;48.922;2.414;2023-06-10T06:32:57;21.92;67.17
77100;SHT31;66602;48.922;2.414;2023-06-10T06:35:22;22.06;67.58
77100;SHT31;66602;48.922;2.414;2023-06-10T06:37:48;22.21;65.80
77100;SHT31;66602;48.922;2.414;2023-06-10T06:40:13;22.34;65.45
77100;SHT31;66602;48.922;2.414;2023-06-10T06:42:39;22.44;65.75
77100;SHT31;66602;48.922;2.414;2023-06-10T06:45:05;22.60;65.07
77100;SHT31;66602;48.922;2.414;2023-06-10T06:47:30;22.72;64.77
77100;SHT31;66602;48.922;2.414;2023-06-10T06:49:56;22.87;64.47
77100;SHT31;66602;48.922;2.414;2023-06-10T06:52:21;23.08;63.48
77100;SHT31;66602;48.922;2.414;2023-06-10T06:54:47;23.34;62.89
77100;SHT31;66602;48.922;2.414;2023-06-10T06:57:13;23.70;62.32
77100;SHT31;66602;48.922;2.414;2023-06-10T06:59:38;23.88;61.07
77100;SHT31;66602;48.922;2.414;2023-06-10T07:02:04;25.04;58.76
77100;SHT31;66602;48.922;2.414;2023-06-10T07:04:30;26.48;56.26
77100;SHT31;66602;48.922;2.414;2023-06-10T07:06:56;27.57;52.48
77100;SHT31;66602;48.922;2.414;2023-06-10T07:09:21;28.49;49.63
77100;SHT31;66602;48.922;2.414;2023-06-10T07:11:46;28.72;49.12
77100;SHT31;66602;48.922;2.414;2023-06-10T07:14:12;29.13;47.61
77100;SHT31;66602;48.922;2.414;2023-06-10T07:16:37;30.15;45.46
77100;SHT31;66602;48.922;2.414;2023-06-10T07:19:03;30.80;44.31
77100;SHT31;66602;48.922;2.414;2023-06-10T07:21:30;31.65;42.09
77100;SHT31;66602;48.922;2.414;2023-06-10T07:23:55;32.75;43.36
77100;SHT31;66602;48.922;2.414;2023-06-10T07:26:24;33.32;39.38
77100;SHT31;66602;48.922;2.414;2023-06-10T07:28:51;33.43;38.67
77100;SHT31;66602;48.922;2.414;2023-06-10T07:31:17;34.38;38.07
77100;SHT31;66602;48.922;2.414;2023-06-10T07:33:42;35.46;35.00
77100;SHT31;66602;48.922;2.414;2023-06-10T07:36:09;35.07;36.64
77100;SHT31;66602;48.922;2.414;2023-06-10T07:38:35;31.96;40.75
77100;SHT31;66602;48.922;2.414;2023-06-10T07:41:00;32.12;42.40
77100;SHT31;66602;48.922;2.414;2023-06-10T07:43:26;34.07;38.25
77100;SHT31;66602;48.922;2.414;2023-06-10T07:45:51;35.09;35.88
77100;SHT31;66602;48.922;2.414;2023-06-10T07:48:17;35.84;34.67
77100;SHT31;66602;48.922;2.414;2023-06-10T07:50:43;36.59;34.78
77100;SHT31;66602;48.922;2.414;2023-06-10T07:53:08;37.13;33.41
77100;SHT31;66602;48.922;2.414;2023-06-10T07:55:34;37.38;32.53
77100;SHT31;66602;48.922;2.414;2023-06-10T07:57:59;37.13;32.22
77100;SHT31;66602;48.922;2.414;2023-06-10T08:00:25;36.78;32.94
77100;SHT31;66602;48.922;2.414;2023-06-10T08:02:50;36.82;32.88
77100;SHT31;66602;48.922;2.414;2023-06-10T08:05:17;37.42;33.16
77100;SHT31;66602;48.922;2.414;2023-06-10T08:07:43;36.79;32.75
77100;SHT31;66602;48.922;2.414;2023-06-10T08:10:09;36.63;33.80
77100;SHT31;66602;48.922;2.414;2023-06-10T08:12:35;36.96;34.04
77100;SHT31;66602;48.922;2.414;2023-06-10T08:15:01;37.47;33.46
77100;SHT31;66602;48.922;2.414;2023-06-10T08:17:30;37.90;32.73
77100;SHT31;66602;48.922;2.414;2023-06-10T08:19:55;38.16;31.36
77100;SHT31;66602;48.922;2.414;2023-06-10T08:22:21;37.60;32.74
77100;SHT31;66602;48.922;2.414;2023-06-10T08:24:46;38.26;31.62
77100;SHT31;66602;48.922;2.414;2023-06-10T08:27:12;38.25;30.77
77100;SHT31;66602;48.922;2.414;2023-06-10T08:29:38;38.68;30.51
77100;SHT31;66602;48.922;2.414;2023-06-10T08:32:04;38.83;30.82
77100;SHT31;66602;48.922;2.414;2023-06-10T08:34:29;38.71;29.95
77100;SHT31;66602;48.922;2.414;2023-06-10T08:36:55;38.75;29.84
77100;SHT31;66602;48.922;2.414;2023-06-10T08:39:23;38.52;29.59
77100;SHT31;66602;48.922;2.414;2023-06-10T08:42:09;38.57;30.80
77100;SHT31;66602;48.922;2.414;2023-06-10T08:44:36;38.32;30.67
77100;SHT31;66602;48.922;2.414;2023-06-10T08:47:15;38.95;29.87
77100;SHT31;66602;48.922;2.414;2023-06-10T08:49:45;39.13;29.82
77100;SHT31;66602;48.922;2.414;2023-06-10T08:52:15;39.56;29.22
77100;SHT31;66602;48.922;2.414;2023-06-10T08:55:04;39.68;28.19
77100;SHT31;66602;48.922;2.414;2023-06-10T08:57:30;40.10;28.14
77100;SHT31;66602;48.922;2.414;2023-06-10T08:59:57;39.68;27.48
77100;SHT31;66602;48.922;2.414;2023-06-10T09:02:23;39.68;29.22
77100;SHT31;66602;48.922;2.414;2023-06-10T09:04:49;39.59;28.39
77100;SHT31;66602;48.922;2.414;2023-06-10T09:07:15;39.97;27.75
77100;SHT31;66602;48.922;2.414;2023-06-10T09:09:42;39.59;29.09
77100;SHT31;66602;48.922;2.414;2023-06-10T09:12:09;39.82;29.15
77100;SHT31;66602;48.922;2.414;2023-06-10T09:14:35;39.56;28.26
77100;SHT31;66602;48.922;2.414;2023-06-10T09:17:02;39.85;30.71
77100;SHT31;66602;48.922;2.414;2023-06-10T09:19:30;40.62;28.18
77100;SHT31;66602;48.922;2.414;2023-06-10T09:21:56;40.98;28.31
77100;SHT31;66602;48.922;2.414;2023-06-10T09:24:27;40.84;26.10
77100;SHT31;66602;48.922;2.414;2023-06-10T09:27:06;40.72;28.07
77100;SHT31;66602;48.922;2.414;2023-06-10T09:29:53;40.36;27.71
77100;SHT31;66602;48.922;2.414;2023-06-10T09:32:19;40.19;27.01
77100;SHT31;66602;48.922;2.414;2023-06-10T09:34:46;40.02;27.81
77100;SHT31;66602;48.922;2.414;2023-06-10T09:37:12;40.19;27.07
77100;SHT31;66602;48.922;2.414;2023-06-10T09:39:39;40.84;28.30
77100;SHT31;66602;48.922;2.414;2023-06-10T09:42:18;41.23;25.88
77100;SHT31;66602;48.922;2.414;2023-06-10T09:44:53;40.85;25.91
77100;SHT31;66602;48.922;2.414;2023-06-10T09:47:22;38.90;28.06
77100;SHT31;66602;48.922;2.414;2023-06-10T09:49:51;39.24;29.13
77100;SHT31;66602;48.922;2.414;2023-06-10T09:52:26;39.89;27.45
77100;SHT31;66602;48.922;2.414;2023-06-10T09:55:02;39.56;27.21
77100;SHT31;66602;48.922;2.414;2023-06-10T09:57:32;39.85;27.87
77100;SHT31;66602;48.922;2.414;2023-06-10T09:59:58;40.40;27.41
77100;SHT31;66602;48.922;2.414;2023-06-10T10:02:24;40.74;26.51
77100;SHT31;66602;48.922;2.414;2023-06-10T10:04:51;40.68;25.69
77100;SHT31;66602;48.922;2.414;2023-06-10T10:07:21;40.02;26.43
77100;SHT31;66602;48.922;2.414;2023-06-10T10:09:47;39.66;27.71
77100;SHT31;66602;48.922;2.414;2023-06-10T10:12:14;40.03;27.24
77100;SHT31;66602;48.922;2.414;2023-06-10T10:14:48;40.75;26.68
77100;SHT31;66602;48.922;2.414;2023-06-10T10:17:15;41.32;27.41
77100;SHT31;66602;48.922;2.414;2023-06-10T10:19:46;41.91;24.58
77100;SHT31;66602;48.922;2.414;2023-06-10T10:22:25;41.39;26.52
77100;SHT31;66602;48.922;2.414;2023-06-10T10:24:55;41.12;25.55
77100;SHT31;66602;48.922;2.414;2023-06-10T10:27:31;41.18;25.77
77100;SHT31;66602;48.922;2.414;2023-06-10T10:29:58;41.15;26.85
77100;SHT31;66602;48.922;2.414;2023-06-10T10:32:58;40.94;25.33
77100;SHT31;66602;48.922;2.414;2023-06-10T10:35:25;41.39;25.86
77100;SHT31;66602;48.922;2.414;2023-06-10T10:37:52;41.46;27.38
77100;SHT31;66602;48.922;2.414;2023-06-10T10:40:19;41.21;25.00
77100;SHT31;66602;48.922;2.414;2023-06-10T10:42:47;41.21;25.24
77100;SHT31;66602;48.922;2.414;2023-06-10T10:45:13;41.40;25.04
77100;SHT31;66602;48.922;2.414;2023-06-10T10:47:39;41.72;25.21
77100;SHT31;66602;48.922;2.414;2023-06-10T10:50:24;42.31;24.36
77100;SHT31;66602;48.922;2.414;2023-06-10T10:53:00;41.66;24.51
77100;SHT31;66602;48.922;2.414;2023-06-10T10:55:27;41.26;24.70
77100;SHT31;66602;48.922;2.414;2023-06-10T11:00:28;38.47;27.53
77100;SHT31;66602;48.922;2.414;2023-06-10T11:02:58;38.64;26.91
77100;SHT31;66602;48.922;2.414;2023-06-10T11:08:08;39.73;25.94
77100;SHT31;66602;48.922;2.414;2023-06-10T11:10:36;40.48;25.23
77100;SHT31;66602;48.922;2.414;2023-06-10T11:13:22;40.95;25.06
77100;SHT31;66602;48.922;2.414;2023-06-10T11:15:49;41.38;23.45
77100;SHT31;66602;48.922;2.414;2023-06-10T11:18:25;41.60;23.51
77100;SHT31;66602;48.922;2.414;2023-06-10T11:23:32;41.32;24.03
77100;SHT31;66602;48.922;2.414;2023-06-10T11:29:01;39.97;26.42
77100;SHT31;66602;48.922;2.414;2023-06-10T11:31:32;40.37;25.11
77100;SHT31;66602;48.922;2.414;2023-06-10T11:34:02;41.05;24.48
77100;SHT31;66602;48.922;2.414;2023-06-10T11:36:32;40.60;24.58
77100;SHT31;66602;48.922;2.414;2023-06-10T11:39:03;40.95;24.71
77100;SHT31;66602;48.922;2.414;2023-06-10T11:41:30;39.99;25.56
77100;SHT31;66602;48.922;2.414;2023-06-10T11:44:22;40.54;25.36
77100;SHT31;66602;48.922;2.414;2023-06-10T11:46:52;40.96;25.10
77100;SHT31;66602;48.922;2.414;2023-06-10T11:49:20;41.05;24.17
77100;SHT31;66602;48.922;2.414;2023-06-10T11:51:45;40.82;24.35
77100;SHT31;66602;48.922;2.414;2023-06-10T11:54:14;40.43;24.63
77100;SHT31;66602;48.922;2.414;2023-06-10T11:56:40;40.31;26.53
77100;SHT31;66602;48.922;2.414;2023-06-10T11:59:06;40.65;25.25
77100;SHT31;66602;48.922;2.414;2023-06-10T12:01:34;41.25;24.39
77100;SHT31;66602;48.922;2.414;2023-06-10T12:04:02;41.18;24.31
77100;SHT31;66602;48.922;2.414;2023-06-10T12:06:47;41.26;24.40
77100;SHT31;66602;48.922;2.414;2023-06-10T12:09:20;42.08;23.79
77100;SHT31;66602;48.922;2.414;2023-06-10T12:11:49;40.16;25.41
77100;SHT31;66602;48.922;2.414;2023-06-10T12:14:15;40.52;24.86
77100;SHT31;66602;48.922;2.414;2023-06-10T12:16:48;41.25;25.26
77100;SHT31;66602;48.922;2.414;2023-06-10T12:19:14;42.32;24.43
77100;SHT31;66602;48.922;2.414;2023-06-10T12:21:39;42.10;23.06
77100;SHT31;66602;48.922;2.414;2023-06-10T12:24:07;40.55;24.75
77100;SHT31;66602;48.922;2.414;2023-06-10T12:26:36;40.45;24.54
77100;SHT31;66602;48.922;2.414;2023-06-10T12:29:18;40.89;24.72
77100;SHT31;66602;48.922;2.414;2023-06-10T12:31:53;40.91;26.76
77100;SHT31;66602;48.922;2.414;2023-06-10T12:34:18;40.94;25.75
77100;SHT31;66602;48.922;2.414;2023-06-10T12:36:49;40.47;25.58
77100;SHT31;66602;48.922;2.414;2023-06-10T12:39:14;38.05;28.15
77100;SHT31;66602;48.922;2.414;2023-06-10T12:41:40;37.86;29.37
77100;SHT31;66602;48.922;2.414;2023-06-10T12:44:05;38.43;29.01
77100;SHT31;66602;48.922;2.414;2023-06-10T12:46:37;38.68;27.45
77100;SHT31;66602;48.922;2.414;2023-06-10T12:49:03;37.35;29.93
77100;SHT31;66602;48.922;2.414;2023-06-10T12:51:28;37.39;29.33
77100;SHT31;66602;48.922;2.414;2023-06-10T12:53:54;38.33;28.48
77100;SHT31;66602;48.922;2.414;2023-06-10T12:56:20;38.63;27.54
77100;SHT31;66602;48.922;2.414;2023-06-10T12:58:47;38.93;27.66
77100;SHT31;66602;48.922;2.414;2023-06-10T13:01:13;37.68;29.10
77100;SHT31;66602;48.922;2.414;2023-06-10T13:03:39;37.04;29.62
77100;SHT31;66602;48.922;2.414;2023-06-10T13:06:05;37.08;29.84
77100;SHT31;66602;48.922;2.414;2023-06-10T13:08:31;38.04;28.31
77100;SHT31;66602;48.922;2.414;2023-06-10T13:10:57;38.77;28.73
77100;SHT31;66602;48.922;2.414;2023-06-10T13:13:23;36.68;30.94
77100;SHT31;66602;48.922;2.414;2023-06-10T13:15:50;35.95;31.24
77100;SHT31;66602;48.922;2.414;2023-06-10T13:18:15;37.08;31.19
77100;SHT31;66602;48.922;2.414;2023-06-10T13:20:44;38.46;29.95
77100;SHT31;66602;48.922;2.414;2023-06-10T13:23:09;38.62;28.34
77100;SHT31;66602;48.922;2.414;2023-06-10T13:25:35;38.49;28.90
77100;SHT31;66602;48.922;2.414;2023-06-10T13:28:01;36.06;31.24
77100;SHT31;66602;48.922;2.414;2023-06-10T13:30:26;34.34;34.66
77100;SHT31;66602;48.922;2.414;2023-06-10T13:32:53;33.46;35.54
77100;SHT31;66602;48.922;2.414;2023-06-10T13:35:19;34.79;33.29
77100;SHT31;66602;48.922;2.414;2023-06-10T13:37:44;36.04;31.52
77100;SHT31;66602;48.922;2.414;2023-06-10T13:40:10;36.76;30.21
77100;SHT31;66602;48.922;2.414;2023-06-10T13:42:36;36.63;31.50
77100;SHT31;66602;48.922;2.414;2023-06-10T13:45:06;36.94;30.66
77100;SHT31;66602;48.922;2.414;2023-06-10T13:47:32;37.26;30.87
77100;SHT31;66602;48.922;2.414;2023-06-10T13:49:57;37.57;28.78
77100;SHT31;66602;48.922;2.414;2023-06-10T13:52:23;38.13;29.08
77100;SHT31;66602;48.922;2.414;2023-06-10T13:54:48;38.71;28.30
77100;SHT31;66602;48.922;2.414;2023-06-10T13:57:14;38.91;28.28
77100;SHT31;66602;48.922;2.414;2023-06-10T13:59:39;38.57;28.61
77100;SHT31;66602;48.922;2.414;2023-06-10T14:02:05;38.13;28.02
77100;SHT31;66602;48.922;2.414;2023-06-10T14:04:30;38.74;28.01
77100;SHT31;66602;48.922;2.414;2023-06-10T14:06:56;38.84;27.94
77100;SHT31;66602;48.922;2.414;2023-06-10T14:09:22;36.97;28.77
77100;SHT31;66602;48.922;2.414;2023-06-10T14:11:48;36.62;29.87
77100;SHT31;66602;48.922;2.414;2023-06-10T14:14:14;36.24;30.32
77100;SHT31;66602;48.922;2.414;2023-06-10T14:16:40;35.19;33.12
77100;SHT31;66602;48.922;2.414;2023-06-10T14:19:05;34.54;33.57
77100;SHT31;66602;48.922;2.414;2023-06-10T14:21:31;34.56;34.57
77100;SHT31;66602;48.922;2.414;2023-06-10T14:23:56;34.93;35.37
77100;SHT31;66602;48.922;2.414;2023-06-10T14:26:22;34.18;35.39
77100;SHT31;66602;48.922;2.414;2023-06-10T14:28:48;33.86;36.13
77100;SHT31;66602;48.922;2.414;2023-06-10T14:31:15;32.95;36.48
77100;SHT31;66602;48.922;2.414;2023-06-10T14:33:40;32.20;37.53
77100;SHT31;66602;48.922;2.414;2023-06-10T14:36:07;31.49;38.67
77100;SHT31;66602;48.922;2.414;2023-06-10T14:38:33;30.90;40.08
77100;SHT31;66602;48.922;2.414;2023-06-10T14:40:58;30.44;40.06
77100;SHT31;66602;48.922;2.414;2023-06-10T14:43:24;30.02;40.43
77100;SHT31;66602;48.922;2.414;2023-06-10T14:45:49;29.71;41.46
77100;SHT31;66602;48.922;2.414;2023-06-10T14:48:16;29.51;42.34
77100;SHT31;66602;48.922;2.414;2023-06-10T14:50:41;29.35;41.57
77100;SHT31;66602;48.922;2.414;2023-06-10T14:53:10;29.30;42.13
77100;SHT31;66602;48.922;2.414;2023-06-10T14:55:35;29.23;42.70
77100;SHT31;66602;48.922;2.414;2023-06-10T14:58:01;29.20;42.10
77100;SHT31;66602;48.922;2.414;2023-06-10T15:00:26;29.17;42.84
77100;SHT31;66602;48.922;2.414;2023-06-10T15:02:52;29.42;43.22
77100;SHT31;66602;48.922;2.414;2023-06-10T15:05:18;30.53;41.00
77100;SHT31;66602;48.922;2.414;2023-06-10T15:07:46;31.80;38.82
77100;SHT31;66602;48.922;2.414;2023-06-10T15:10:12;32.12;38.99
77100;SHT31;66602;48.922;2.414;2023-06-10T15:12:38;32.06;38.54
77100;SHT31;66602;48.922;2.414;2023-06-10T15:15:04;32.12;38.66
77100;SHT31;66602;48.922;2.414;2023-06-10T15:17:30;32.70;37.18
77100;SHT31;66602;48.922;2.414;2023-06-10T15:19:55;33.33;37.38
77100;SHT31;66602;48.922;2.414;2023-06-10T15:22:21;34.18;36.19
77100;SHT31;66602;48.922;2.414;2023-06-10T15:24:47;34.17;35.55
77100;SHT31;66602;48.922;2.414;2023-06-10T15:27:13;34.25;34.81
77100;SHT31;66602;48.922;2.414;2023-06-10T15:29:40;34.40;35.57
77100;SHT31;66602;48.922;2.414;2023-06-10T15:32:06;34.48;34.26
77100;SHT31;66602;48.922;2.414;2023-06-10T15:34:31;34.00;35.43
77100;SHT31;66602;48.922;2.414;2023-06-10T15:36:57;33.21;36.36
77100;SHT31;66602;48.922;2.414;2023-06-10T15:39:22;33.84;35.76
77100;SHT31;66602;48.922;2.414;2023-06-10T15:41:49;34.61;35.09
77100;SHT31;66602;48.922;2.414;2023-06-10T15:44:15;35.14;33.42
77100;SHT31;66602;48.922;2.414;2023-06-10T15:46:40;34.99;33.95
77100;SHT31;66602;48.922;2.414;2023-06-10T15:49:06;34.73;34.16